sensor_id;sensor_type;location;lat;lon;timestamp;pressure;altitude;pressure_sealevel;temperature;humidity
43814;BME280;29669;55.706;37.656;2023-02-18T00:01:38;100108.44;;;-7.89;nan
43814;BME280;29669;55.706;37.656;2023-02-18T00:04:06;100115.06;;;-7.87;nan
43814;BME280;29669;55.706;37.656;2023-02-18T00:06:34;100111.75;;;-7.89;nan
43814;BME280;29669;55.706;37.656;2023-02-18T00:09:03;100101.69;;;-7.89;nan
43814;BME280;29669;55.706;37.656;2023-02-18T00:11:34;100100.94;;;-7.92;nan
43814;BME280;29669;55.706;37.656;2023-02-18T00:14:05;100098.56;;;-7.97;nan
43814;BME280;29669;55.706;37.656;2023-02-18T00:16:33;100088.53;;;-8.00;nan
43814;BME280;29669;55.706;37.656;2023-02-18T00:19:04;100094.38;;;-7.98;nan
43814;BME280;29669;55.706;37.656;2023-02-18T00:21:34;100083.59;;;-8.03;nan
43814;BME280;29669;55.706;37.656;2023-02-18T00:24:03;100092.75;;;-8.00;nan
43814;BME280;29669;55.706;37.656;2023-02-18T00:26:32;100078.63;;;-8.06;nan
43814;BME280;29669;55.706;37.656;2023-02-18T00:29:00;100083.59;;;-8.03;nan
43814;BME280;29669;55.706;37.656;2023-02-18T00:31:31;100082.72;;;-8.02;nan
43814;BME280;29669;55.706;37.656;2023-02-18T00:34:02;100078.63;;;-8.06;nan
43814;BME280;29669;55.706;37.656;2023-02-18T00:36:31;100074.44;;;-8.05;nan
43814;BME280;29669;55.706;37.656;2023-02-18T00:39:00;100076.16;;;-8.07;nan
43814;BME280;29669;55.706;37.656;2023-02-18T00:41:30;100063.72;;;-8.13;nan
43814;BME280;29669;55.706;37.656;2023-02-18T00:43:59;100058.63;;;-8.12;nan
43814;BME280;29669;55.706;37.656;2023-02-18T00:46:27;100058.63;;;-8.12;nan
43814;BME280;29669;55.706;37.656;2023-02-18T00:48:55;100059.56;;;-8.14;nan
43814;BME280;29669;55.706;37.656;2023-02-18T00:51:23;100060.34;;;-8.12;nan
43814;BME280;29669;55.706;37.656;2023-02-18T00:53:52;100051.91;;;-8.11;nan
43814;BME280;29669;55.706;37.656;2023-02-18T00:56:20;100054.47;;;-8.13;nan
43814;BME280;29669;55.706;37.656;2023-02-18T00:58:49;100042.63;;;-8.09;nan
43814;BME280;29669;55.706;37.656;2023-02-18T01:01:18;100040.91;;;-8.07;nan
43814;BME280;29669;55.706;37.656;2023-02-18T01:03:46;100047.50;;;-8.03;nan
43814;BME280;29669;55.706;37.656;2023-02-18T01:06:14;100043.31;;;-8.03;nan
43814;BME280;29669;55.706;37.656;2023-02-18T01:08:42;100030.00;;;-8.08;nan
43814;BME280;29669;55.706;37.656;2023-02-18T01:11:11;100034.97;;;-8.05;nan
43814;BME280;29669;55.706;37.656;2023-02-18T01:13:40;100024.16;;;-8.08;nan
43814;BME280;29669;55.706;37.656;2023-02-18T01:16:08;100015.03;;;-8.12;nan
43814;BME280;29669;55.706;37.656;2023-02-18T01:18:38;100005.00;;;-8.14;nan
43814;BME280;29669;55.706;37.656;2023-02-18T01:21:07;100002.44;;;-8.12;nan
43814;BME280;29669;55.706;37.656;2023-02-18T01:23:37;100000.00;;;-8.15;nan
43814;BME280;29669;55.706;37.656;2023-02-18T01:26:05;100001.69;;;-8.16;nan
43814;BME280;29669;55.706;37.656;2023-02-18T01:28:37;99980.94;;;-8.24;nan
43814;BME280;29669;55.706;37.656;2023-02-18T01:31:08;99984.34;;;-8.25;nan
43814;BME280;29669;55.706;37.656;2023-02-18T01:33:38;99965.91;;;-8.25;nan
43814;BME280;29669;55.706;37.656;2023-02-18T01:36:06;99977.66;;;-8.26;nan
43814;BME280;29669;55.706;37.656;2023-02-18T01:38:34;99973.47;;;-8.27;nan
43814;BME280;29669;55.706;37.656;2023-02-18T01:41:03;99974.34;;;-8.28;nan
43814;BME280;29669;55.706;37.656;2023-02-18T01:43:31;99960.13;;;-8.29;nan
43814;BME280;29669;55.706;37.656;2023-02-18T01:48:56;99947.34;;;-7.94;nan
43814;BME280;29669;55.706;37.656;2023-02-18T01:51:36;99951.50;;;-7.63;nan
43814;BME280;29669;55.706;37.656;2023-02-18T01:54:07;99952.41;;;-7.38;nan
43814;BME280;29669;55.706;37.656;2023-02-18T01:56:44;99945.09;;;-7.20;nan
43814;BME280;29669;55.706;37.656;2023-02-18T01:59:19;99932.81;;;-7.04;nan
43814;BME280;29669;55.706;37.656;2023-02-18T02:01:48;99931.53;;;-6.91;nan
43814;BME280;29669;55.706;37.656;2023-02-18T02:04:16;99932.09;;;-6.83;nan
43814;BME280;29669;55.706;37.656;2023-02-18T02:06:44;99920.22;;;-6.80;nan
43814;BME280;29669;55.706;37.656;2023-02-18T02:09:14;99920.78;;;-6.72;nan
43814;BME280;29669;55.706;37.656;2023-02-18T02:34:51;99897.06;;;-6.43;nan
43814;BME280;29669;55.706;37.656;2023-02-18T02:37:34;99887.84;;;-6.44;nan
43814;BME280;29669;55.706;37.656;2023-02-18T02:51:14;99887.84;;;-6.44;nan
43814;BME280;29669;55.706;37.656;2023-02-18T02:53:45;99881.13;;;-6.45;nan
43814;BME280;29669;55.706;37.656;2023-02-18T02:56:19;99871.59;;;-6.37;nan
43814;BME280;29669;55.706;37.656;2023-02-18T02:58:59;99875.78;;;-6.36;nan
43814;BME280;29669;55.706;37.656;2023-02-18T03:01:35;99874.94;;;-6.36;nan
43814;BME280;29669;55.706;37.656;2023-02-18T03:04:12;99856.38;;;-6.35;nan
43814;BME280;29669;55.706;37.656;2023-02-18T03:15:49;99842.47;;;-6.45;nan
43814;BME280;29669;55.706;37.656;2023-02-18T03:18:29;99834.28;;;-6.52;nan
43814;BME280;29669;55.706;37.656;2023-02-18T03:21:38;99841.50;;;-6.43;nan
43814;BME280;29669;55.706;37.656;2023-02-18T03:24:28;99836.38;;;-6.40;nan
43814;BME280;29669;55.706;37.656;2023-02-18T03:27:02;99826.13;;;-6.37;nan
43814;BME280;29669;55.706;37.656;2023-02-18T03:29:32;99820.16;;;-6.34;nan
43814;BME280;29669;55.706;37.656;2023-02-18T03:32:05;99807.19;;;-6.25;nan
43814;BME280;29669;55.706;37.656;2023-02-18T03:34:38;99811.81;;;-6.15;nan
43814;BME280;29669;55.706;37.656;2023-02-18T03:37:08;99800.09;;;-6.16;nan
43814;BME280;29669;55.706;37.656;2023-02-18T03:39:41;99792.59;;;-6.19;nan
43814;BME280;29669;55.706;37.656;2023-02-18T03:42:10;99794.44;;;-6.22;nan
43814;BME280;29669;55.706;37.656;2023-02-18T03:44:38;99788.44;;;-6.20;nan
43814;BME280;29669;55.706;37.656;2023-02-18T03:47:06;99779.94;;;-6.17;nan
43814;BME280;29669;55.706;37.656;2023-02-18T03:49:34;99797.41;;;-6.11;nan
43814;BME280;29669;55.706;37.656;2023-02-18T03:52:01;99787.38;;;-6.14;nan
43814;BME280;29669;55.706;37.656;2023-02-18T03:54:29;99783.03;;;-6.11;nan
43814;BME280;29669;55.706;37.656;2023-02-18T03:56:57;99769.66;;;-6.13;nan
43814;BME280;29669;55.706;37.656;2023-02-18T03:59:25;99778.47;;;-6.23;nan
43814;BME280;29669;55.706;37.656;2023-02-18T04:01:52;99764.38;;;-6.28;nan
43814;BME280;29669;55.706;37.656;2023-02-18T04:04:20;99762.84;;;-6.32;nan
43814;BME280;29669;55.706;37.656;2023-02-18T04:06:48;99759.78;;;-6.40;nan
43814;BME280;29669;55.706;37.656;2023-02-18T04:09:15;99765.88;;;-6.46;nan
43814;BME280;29669;55.706;37.656;2023-02-18T04:11:43;99764.13;;;-6.44;nan
43814;BME280;29669;55.706;37.656;2023-02-18T04:14:12;99750.38;;;-6.37;nan
43814;BME280;29669;55.706;37.656;2023-02-18T04:16:40;99751.31;;;-6.39;nan
43814;BME280;29669;55.706;37.656;2023-02-18T04:19:08;99755.31;;;-6.34;nan
43814;BME280;29669;55.706;37.656;2023-02-18T04:21:36;99742.53;;;-6.29;nan
43814;BME280;29669;55.706;37.656;2023-02-18T04:24:04;99738.38;;;-6.30;nan
43814;BME280;29669;55.706;37.656;2023-02-18T04:26:32;99737.31;;;-6.25;nan
43814;BME280;29669;55.706;37.656;2023-02-18T04:29:00;99730.28;;;-6.18;nan
43814;BME280;29669;55.706;37.656;2023-02-18T04:31:28;99737.72;;;-6.14;nan
43814;BME280;29669;55.706;37.656;2023-02-18T04:33:56;99725.69;;;-6.09;nan
43814;BME280;29669;55.706;37.656;2023-02-18T04:36:26;99723.38;;;-6.13;nan
43814;BME280;29669;55.706;37.656;2023-02-18T04:38:54;99727.47;;;-6.11;nan
43814;BME280;29669;55.706;37.656;2023-02-18T04:41:22;99705.72;;;-6.15;nan
43814;BME280;29669;55.706;37.656;2023-02-18T04:43:50;99709.16;;;-6.16;nan
43814;BME280;29669;55.706;37.656;2023-02-18T04:46:18;99699.16;;;-6.19;nan
43814;BME280;29669;55.706;37.656;2023-02-18T04:48:45;99696.53;;;-6.16;nan
43814;BME280;29669;55.706;37.656;2023-02-18T04:51:13;99700.56;;;-6.12;nan
43814;BME280;29669;55.706;37.656;2023-02-18T04:53:41;99692.88;;;-6.09;nan
43814;BME280;29669;55.706;37.656;2023-02-18T04:56:09;99699.44;;;-6.05;nan
43814;BME280;29669;55.706;37.656;2023-02-18T04:58:37;99705.41;;;-6.06;nan
43814;BME280;29669;55.706;37.656;2023-02-18T05:01:04;99707.16;;;-6.08;nan
43814;BME280;29669;55.706;37.656;2023-02-18T05:03:32;99701.03;;;-6.02;nan
43814;BME280;29669;55.706;37.656;2023-02-18T05:06:00;99701.66;;;-5.97;nan
43814;BME280;29669;55.706;37.656;2023-02-18T05:08:28;99689.84;;;-5.97;nan
43814;BME280;29669;55.706;37.656;2023-02-18T05:10:56;99688.25;;;-5.99;nan
43814;BME280;29669;55.706;37.656;2023-02-18T05:13:23;99683.91;;;-5.96;nan
43814;BME280;29669;55.706;37.656;2023-02-18T05:15:51;99684.66;;;-5.94;nan
43814;BME280;29669;55.706;37.656;2023-02-18T05:18:19;99685.44;;;-5.92;nan
43814;BME280;29669;55.706;37.656;2023-02-18T05:20:47;99669.50;;;-5.94;nan
43814;BME280;29669;55.706;37.656;2023-02-18T05:23:14;99669.41;;;-5.91;nan
43814;BME280;29669;55.706;37.656;2023-02-18T05:25:42;99669.25;;;-5.88;nan
43814;BME280;29669;55.706;37.656;2023-02-18T05:28:10;99667.06;;;-5.77;nan
43814;BME280;29669;55.706;37.656;2023-02-18T05:30:38;99670.13;;;-5.68;nan
43814;BME280;29669;55.706;37.656;2023-02-18T05:33:05;99659.75;;;-5.62;nan
43814;BME280;29669;55.706;37.656;2023-02-18T05:35:33;99663.56;;;-5.54;nan
43814;BME280;29669;55.706;37.656;2023-02-18T05:38:00;99656.56;;;-5.47;nan
43814;BME280;29669;55.706;37.656;2023-02-18T05:40:28;99653.78;;;-5.41;nan
43814;BME280;29669;55.706;37.656;2023-02-18T05:42:55;99636.06;;;-5.41;nan
43814;BME280;29669;55.706;37.656;2023-02-18T05:45:23;99641.56;;;-5.32;nan
43814;BME280;29669;55.706;37.656;2023-02-18T05:47:50;99638.28;;;-5.34;nan
43814;BME280;29669;55.706;37.656;2023-02-18T05:50:18;99633.00;;;-5.29;nan
43814;BME280;29669;55.706;37.656;2023-02-18T05:52:46;99617.13;;;-5.33;nan
43814;BME280;29669;55.706;37.656;2023-02-18T05:55:13;99618.84;;;-5.33;nan
43814;BME280;29669;55.706;37.656;2023-02-18T05:57:41;99619.25;;;-5.24;nan
43814;BME280;29669;55.706;37.656;2023-02-18T06:00:09;99603.88;;;-5.19;nan
43814;BME280;29669;55.706;37.656;2023-02-18T06:02:36;99599.50;;;-5.16;nan
43814;BME280;29669;55.706;37.656;2023-02-18T06:05:04;99601.19;;;-5.16;nan
43814;BME280;29669;55.706;37.656;2023-02-18T06:07:32;99601.94;;;-5.14;nan
43814;BME280;29669;55.706;37.656;2023-02-18T06:10:00;99605.22;;;-5.12;nan
43814;BME280;29669;55.706;37.656;2023-02-18T06:12:29;99591.56;;;-5.08;nan
43814;BME280;29669;55.706;37.656;2023-02-18T06:14:57;99593.75;;;-5.01;nan
43814;BME280;29669;55.706;37.656;2023-02-18T06:17:25;99584.72;;;-5.06;nan
43814;BME280;29669;55.706;37.656;2023-02-18T06:19:52;99589.66;;;-5.22;nan
43814;BME280;29669;55.706;37.656;2023-02-18T06:22:20;99591.22;;;-5.38;nan
43814;BME280;29669;55.706;37.656;2023-02-18T06:24:48;99587.06;;;-5.39;nan
43814;BME280;29669;55.706;37.656;2023-02-18T06:27:15;99580.63;;;-5.27;nan
43814;BME280;29669;55.706;37.656;2023-02-18T06:29:43;99574.34;;;-5.19;nan
43814;BME280;29669;55.706;37.656;2023-02-18T06:32:10;99574.59;;;-5.06;nan
43814;BME280;29669;55.706;37.656;2023-02-18T06:34:38;99570.44;;;-4.90;nan
43814;BME280;29669;55.706;37.656;2023-02-18T06:37:06;99572.56;;;-4.81;nan
43814;BME280;29669;55.706;37.656;2023-02-18T06:39:33;99559.63;;;-4.75;nan
43814;BME280;29669;55.706;37.656;2023-02-18T06:42:01;99571.31;;;-4.72;nan
43814;BME280;29669;55.706;37.656;2023-02-18T06:44:28;99557.91;;;-4.74;nan
43814;BME280;29669;55.706;37.656;2023-02-18T06:46:56;99551.34;;;-4.79;nan
43814;BME280;29669;55.706;37.656;2023-02-18T06:49:24;99546.50;;;-4.83;nan
43814;BME280;29669;55.706;37.656;2023-02-18T06:51:51;99544.81;;;-4.83;nan
43814;BME280;29669;55.706;37.656;2023-02-18T06:54:19;99546.72;;;-4.88;nan
43814;BME280;29669;55.706;37.656;2023-02-18T06:56:46;99538.63;;;-4.94;nan
43814;BME280;29669;55.706;37.656;2023-02-18T06:59:14;99537.56;;;-4.90;nan
43814;BME280;29669;55.706;37.656;2023-02-18T07:01:42;99530.88;;;-4.91;nan
43814;BME280;29669;55.706;37.656;2023-02-18T07:04:09;99527.75;;;-4.79;nan
43814;BME280;29669;55.706;37.656;2023-02-18T07:06:37;99526.19;;;-4.64;nan
43814;BME280;29669;55.706;37.656;2023-02-18T07:09:05;99524.78;;;-4.53;nan
43814;BME280;29669;55.706;37.656;2023-02-18T07:11:33;99514.88;;;-4.40;nan
43814;BME280;29669;55.706;37.656;2023-02-18T07:14:00;99509.50;;;-4.34;nan
43814;BME280;29669;55.706;37.656;2023-02-18T07:16:28;99505.66;;;-4.26;nan
43814;BME280;29669;55.706;37.656;2023-02-18T07:18:55;99496.81;;;-4.17;nan
43814;BME280;29669;55.706;37.656;2023-02-18T07:21:23;99492.97;;;-4.09;nan
43814;BME280;29669;55.706;37.656;2023-02-18T07:23:51;99490.72;;;-3.98;nan
43814;BME280;29669;55.706;37.656;2023-02-18T07:26:18;99484.44;;;-3.91;nan
43814;BME280;29669;55.706;37.656;2023-02-18T07:28:46;99485.91;;;-3.87;nan
43814;BME280;29669;55.706;37.656;2023-02-18T07:31:14;99479.13;;;-3.70;nan
43814;BME280;29669;55.706;37.656;2023-02-18T07:33:41;99484.44;;;-3.59;nan
43814;BME280;29669;55.706;37.656;2023-02-18T07:36:09;99472.34;;;-3.54;nan
43814;BME280;29669;55.706;37.656;2023-02-18T07:38:37;99476.19;;;-3.47;nan
43814;BME280;29669;55.706;37.656;2023-02-18T07:41:04;99471.34;;;-3.52;nan
43814;BME280;29669;55.706;37.656;2023-02-18T07:43:32;99466.13;;;-3.49;nan
43814;BME280;29669;55.706;37.656;2023-02-18T07:46:04;99450.31;;;-3.38;nan
43814;BME280;29669;55.706;37.656;2023-02-18T07:48:32;99454.19;;;-3.31;nan
43814;BME280;29669;55.706;37.656;2023-02-18T07:51:00;99444.50;;;-3.25;nan
43814;BME280;29669;55.706;37.656;2023-02-18T07:53:31;99434.97;;;-3.21;nan
43814;BME280;29669;55.706;37.656;2023-02-18T07:55:59;99441.53;;;-3.17;nan
43814;BME280;29669;55.706;37.656;2023-02-18T07:58:30;99434.47;;;-3.12;nan
43814;BME280;29669;55.706;37.656;2023-02-18T08:00:58;99436.41;;;-3.02;nan
43814;BME280;29669;55.706;37.656;2023-02-18T08:03:29;99424.41;;;-2.84;nan
43814;BME280;29669;55.706;37.656;2023-02-18T08:05:57;99428.78;;;-2.72;nan
43814;BME280;29669;55.706;37.656;2023-02-18T08:08:26;99419.38;;;-2.56;nan
43814;BME280;29669;55.706;37.656;2023-02-18T08:10:57;99421.00;;;-2.55;nan
43814;BME280;29669;55.706;37.656;2023-02-18T08:13:28;99412.47;;;-2.54;nan
43814;BME280;29669;55.706;37.656;2023-02-18T08:15:56;99402.03;;;-2.49;nan
43814;BME280;29669;55.706;37.656;2023-02-18T08:18:25;99395.78;;;-2.44;nan
43814;BME280;29669;55.706;37.656;2023-02-18T08:20:53;99388.63;;;-2.37;nan
43814;BME280;29669;55.706;37.656;2023-02-18T08:23:21;99382.81;;;-2.39;nan
43814;BME280;29669;55.706;37.656;2023-02-18T08:25:50;99386.25;;;-2.26;nan
43814;BME280;29669;55.706;37.656;2023-02-18T08:28:20;99387.59;;;-2.21;nan
43814;BME280;29669;55.706;37.656;2023-02-18T08:30:50;99390.66;;;-2.02;nan
43814;BME280;29669;55.706;37.656;2023-02-18T08:33:19;99385.00;;;-1.93;nan
43814;BME280;29669;55.706;37.656;2023-02-18T08:35:49;99377.00;;;-1.86;nan
43814;BME280;29669;55.706;37.656;2023-02-18T08:38:18;99361.53;;;-1.83;nan
43814;BME280;29669;55.706;37.656;2023-02-18T08:40:46;99370.09;;;-1.84;nan
43814;BME280;29669;55.706;37.656;2023-02-18T08:43:15;99368.47;;;-1.85;nan
43814;BME280;29669;55.706;37.656;2023-02-18T08:45:43;99355.22;;;-1.91;nan
43814;BME280;29669;55.706;37.656;2023-02-18T08:48:13;99343.13;;;-1.87;nan
43814;BME280;29669;55.706;37.656;2023-02-18T08:50:46;99345.81;;;-1.76;nan
43814;BME280;29669;55.706;37.656;2023-02-18T08:53:15;99336.06;;;-1.69;nan
43814;BME280;29669;55.706;37.656;2023-02-18T08:55:43;99335.09;;;-1.54;nan
43814;BME280;29669;55.706;37.656;2023-02-18T08:58:11;99329.78;;;-1.64;nan
43814;BME280;29669;55.706;37.656;2023-02-18T09:00:40;99325.66;;;-1.79;nan
43814;BME280;29669;55.706;37.656;2023-02-18T09:03:13;99328.19;;;-1.79;nan
43814;BME280;29669;55.706;37.656;2023-02-18T09:05:41;99327.94;;;-1.74;nan
43814;BME280;29669;55.706;37.656;2023-02-18T09:08:09;99322.13;;;-1.76;nan
43814;BME280;29669;55.706;37.656;2023-02-18T09:10:36;99298.59;;;-1.80;nan
43814;BME280;29669;55.706;37.656;2023-02-18T09:13:05;99294.91;;;-1.88;nan
43814;BME280;29669;55.706;37.656;2023-02-18T09:15:33;99297.06;;;-1.82;nan
43814;BME280;29669;55.706;37.656;2023-02-18T09:18:00;99296.38;;;-1.72;nan
43814;BME280;29669;55.706;37.656;2023-02-18T09:20:28;99296.09;;;-1.55;nan
43814;BME280;29669;55.706;37.656;2023-02-18T09:22:56;99286.97;;;-1.45;nan
43814;BME280;29669;55.706;37.656;2023-02-18T09:25:24;99280.28;;;-1.33;nan
43814;BME280;29669;55.706;37.656;2023-02-18T09:27:51;99279.56;;;-1.23;nan
43814;BME280;29669;55.706;37.656;2023-02-18T09:30:19;99272.16;;;-1.01;nan
43814;BME280;29669;55.706;37.656;2023-02-18T09:32:47;99261.59;;;-0.71;nan
43814;BME280;29669;55.706;37.656;2023-02-18T09:35:14;99257.34;;;-0.83;nan
43814;BME280;29669;55.706;37.656;2023-02-18T09:37:42;99243.09;;;-0.98;nan
43814;BME280;29669;55.706;37.656;2023-02-18T09:40:23;99242.69;;;-1.17;nan
43814;BME280;29669;55.706;37.656;2023-02-18T09:42:54;99240.66;;;-1.25;nan
43814;BME280;29669;55.706;37.656;2023-02-18T09:45:23;99239.31;;;-1.30;nan
43814;BME280;29669;55.706;37.656;2023-02-18T09:47:51;99238.03;;;-1.23;nan
43814;BME280;29669;55.706;37.656;2023-02-18T09:52:49;99226.09;;;-1.10;nan
43814;BME280;29669;55.706;37.656;2023-02-18T09:55:27;99224.34;;;-1.10;nan
43814;BME280;29669;55.706;37.656;2023-02-18T09:57:59;99227.72;;;-1.09;nan
43814;BME280;29669;55.706;37.656;2023-02-18T10:00:41;99218.84;;;-1.04;nan
43814;BME280;29669;55.706;37.656;2023-02-18T10:03:15;99207.25;;;-0.95;nan
43814;BME280;29669;55.706;37.656;2023-02-18T10:05:59;99197.25;;;-0.98;nan
43814;BME280;29669;55.706;37.656;2023-02-18T10:08:49;99194.38;;;-0.93;nan
43814;BME280;29669;55.706;37.656;2023-02-18T10:11:30;99188.06;;;-0.88;nan
43814;BME280;29669;55.706;37.656;2023-02-18T10:13:59;99180.41;;;-0.88;nan
43814;BME280;29669;55.706;37.656;2023-02-18T10:16:27;99173.72;;;-0.65;nan
43814;BME280;29669;55.706;37.656;2023-02-18T10:19:02;99171.88;;;-0.63;nan
43814;BME280;29669;55.706;37.656;2023-02-18T10:21:32;99158.25;;;-0.75;nan
43814;BME280;29669;55.706;37.656;2023-02-18T10:24:03;99152.41;;;-0.88;nan
43814;BME280;29669;55.706;37.656;2023-02-18T10:26:34;99160.16;;;-1.02;nan
43814;BME280;29669;55.706;37.656;2023-02-18T10:29:17;99151.13;;;-1.06;nan
43814;BME280;29669;55.706;37.656;2023-02-18T10:32:04;99142.44;;;-1.04;nan
43814;BME280;29669;55.706;37.656;2023-02-18T10:51:03;99112.16;;;-0.59;nan
43814;BME280;29669;55.706;37.656;2023-02-18T10:53:38;99111.72;;;-0.53;nan
43814;BME280;29669;55.706;37.656;2023-02-18T10:56:07;99112.78;;;-0.45;nan
43814;BME280;29669;55.706;37.656;2023-02-18T10:58:41;99106.56;;;-0.30;nan
43814;BME280;29669;55.706;37.656;2023-02-18T11:01:15;99111.06;;;-0.10;nan
43814;BME280;29669;55.706;37.656;2023-02-18T11:03:46;99111.97;;;-0.11;nan
43814;BME280;29669;55.706;37.656;2023-02-18T11:06:29;99101.34;;;-0.28;nan
43814;BME280;29669;55.706;37.656;2023-02-18T11:08:58;99102.84;;;-0.37;nan
43814;BME280;29669;55.706;37.656;2023-02-18T11:11:37;99100.78;;;-0.32;nan
43814;BME280;29669;55.706;37.656;2023-02-18T11:14:07;99092.72;;;-0.15;nan
43814;BME280;29669;55.706;37.656;2023-02-18T11:16:43;99091.59;;;0.12;nan
43814;BME280;29669;55.706;37.656;2023-02-18T11:19:36;99090.00;;;0.44;nan
43814;BME280;29669;55.706;37.656;2023-02-18T11:24:37;99079.91;;;0.53;nan
43814;BME280;29669;55.706;37.656;2023-02-18T11:27:19;99077.69;;;0.71;nan
43814;BME280;29669;55.706;37.656;2023-02-18T11:29:55;99071.75;;;0.70;nan
43814;BME280;29669;55.706;37.656;2023-02-18T11:32:27;99060.53;;;0.51;nan
43814;BME280;29669;55.706;37.656;2023-02-18T11:34:56;99063.78;;;0.31;nan
43814;BME280;29669;55.706;37.656;2023-02-18T11:37:24;99054.28;;;0.22;nan
43814;BME280;29669;55.706;37.656;2023-02-18T11:39:53;99058.66;;;0.20;nan
43814;BME280;29669;55.706;37.656;2023-02-18T11:42:24;99050.69;;;0.13;nan
43814;BME280;29669;55.706;37.656;2023-02-18T11:44:57;99055.16;;;-0.13;nan
43814;BME280;29669;55.706;37.656;2023-02-18T11:47:36;99047.25;;;-0.21;nan
43814;BME280;29669;55.706;37.656;2023-02-18T11:52:40;99030.75;;;-0.50;nan
43814;BME280;29669;55.706;37.656;2023-02-18T11:55:25;99038.25;;;-0.59;nan
43814;BME280;29669;55.706;37.656;2023-02-18T11:57:55;99032.59;;;-0.75;nan
43814;BME280;29669;55.706;37.656;2023-02-18T12:02:58;99020.25;;;-0.69;nan
43814;BME280;29669;55.706;37.656;2023-02-18T12:05:27;99018.72;;;-0.71;nan
43814;BME280;29669;55.706;37.656;2023-02-18T12:08:09;99029.69;;;-0.82;nan
43814;BME280;29669;55.706;37.656;2023-02-18T12:10:42;99008.19;;;-1.02;nan
43814;BME280;29669;55.706;37.656;2023-02-18T12:13:21;99010.41;;;-0.97;nan
43814;BME280;29669;55.706;37.656;2023-02-18T12:30:13;98988.69;;;-1.37;nan
43814;BME280;29669;55.706;37.656;2023-02-18T12:35:34;98989.88;;;-1.66;nan
43814;BME280;29669;55.706;37.656;2023-02-18T12:38:11;98979.50;;;-1.76;nan
43814;BME280;29669;55.706;37.656;2023-02-18T12:59:03;98974.06;;;-1.82;nan
43814;BME280;29669;55.706;37.656;2023-02-18T13:01:48;98964.28;;;-1.88;nan
43814;BME280;29669;55.706;37.656;2023-02-18T13:04:34;98960.13;;;-1.89;nan
43814;BME280;29669;55.706;37.656;2023-02-18T13:18:02;98950.53;;;-2.35;nan
43814;BME280;29669;55.706;37.656;2023-02-18T13:20:59;98953.88;;;-2.47;nan
43814;BME280;29669;55.706;37.656;2023-02-18T13:23:54;98927.94;;;-2.64;nan
43814;BME280;29669;55.706;37.656;2023-02-18T13:26:23;98945.13;;;-2.80;nan
43814;BME280;29669;55.706;37.656;2023-02-18T13:35:01;98932.75;;;-3.12;nan
43814;BME280;29669;55.706;37.656;2023-02-18T13:40:17;98927.28;;;-3.18;nan
43814;BME280;29669;55.706;37.656;2023-02-18T13:42:50;98917.31;;;-3.21;nan
43814;BME280;29669;55.706;37.656;2023-02-18T13:47:54;98913.44;;;-3.27;nan
43814;BME280;29669;55.706;37.656;2023-02-18T13:50:27;98916.91;;;-3.28;nan
43814;BME280;29669;55.706;37.656;2023-02-18T13:53:18;98906.81;;;-3.29;nan
43814;BME280;29669;55.706;37.656;2023-02-18T13:56:19;98902.16;;;-3.35;nan
43814;BME280;29669;55.706;37.656;2023-02-18T13:58:43;98902.34;;;-3.38;nan
43814;BME280;29669;55.706;37.656;2023-02-18T14:01:52;98882.75;;;-3.36;nan
43814;BME280;29669;55.706;37.656;2023-02-18T14:09:55;98887.19;;;-3.52;nan
43814;BME280;29669;55.706;37.656;2023-02-18T14:12:36;98886.47;;;-3.54;nan
43814;BME280;29669;55.706;37.656;2023-02-18T14:18:22;98888.19;;;-3.55;nan
43814;BME280;29669;55.706;37.656;2023-02-18T14:20:51;98876.50;;;-3.57;nan
43814;BME280;29669;55.706;37.656;2023-02-18T14:25:57;98875.72;;;-3.58;nan
43814;BME280;29669;55.706;37.656;2023-02-18T14:50:33;98866.66;;;-3.62;nan
43814;BME280;29669;55.706;37.656;2023-02-18T14:53:05;98862.38;;;-3.61;nan
43814;BME280;29669;55.706;37.656;2023-02-18T14:55:37;98859.56;;;-3.57;nan
43814;BME280;29669;55.706;37.656;2023-02-18T15:00:49;98851.78;;;-3.54;nan
43814;BME280;29669;55.706;37.656;2023-02-18T15:03:18;98848.22;;;-3.51;nan
43814;BME280;29669;55.706;37.656;2023-02-18T15:05:49;98843.59;;;-3.45;nan
43814;BME280;29669;55.706;37.656;2023-02-18T15:08:20;98856.50;;;-3.35;nan
43814;BME280;29669;55.706;37.656;2023-02-18T15:10:58;98848.56;;;-3.31;nan
43814;BME280;29669;55.706;37.656;2023-02-18T15:13:34;98846.03;;;-3.31;nan
43814;BME280;29669;55.706;37.656;2023-02-18T15:16:07;98832.56;;;-3.31;nan
43814;BME280;29669;55.706;37.656;2023-02-18T15:18:40;98825.84;;;-3.32;nan
43814;BME280;29669;55.706;37.656;2023-02-18T15:21:17;98828.38;;;-3.32;nan
43814;BME280;29669;55.706;37.656;2023-02-18T15:23:48;98807.47;;;-3.36;nan
43814;BME280;29669;55.706;37.656;2023-02-18T15:26:16;98807.88;;;-3.42;nan
43814;BME280;29669;55.706;37.656;2023-02-18T15:29:00;98813.66;;;-3.40;nan
43814;BME280;29669;55.706;37.656;2023-02-18T15:31:30;98802.41;;;-3.48;nan
43814;BME280;29669;55.706;37.656;2023-02-18T15:34:16;98802.41;;;-3.48;nan
43814;BME280;29669;55.706;37.656;2023-02-18T15:36:52;98792.44;;;-3.51;nan
43814;BME280;29669;55.706;37.656;2023-02-18T15:39:21;98789.00;;;-3.50;nan
43814;BME280;29669;55.706;37.656;2023-02-18T15:41:55;98798.94;;;-3.47;nan
43814;BME280;29669;55.706;37.656;2023-02-18T15:44:26;98794.56;;;-3.45;nan
43814;BME280;29669;55.706;37.656;2023-02-18T15:47:02;98788.41;;;-3.41;nan
43814;BME280;29669;55.706;37.656;2023-02-18T15:49:31;98785.84;;;-3.41;nan
43814;BME280;29669;55.706;37.656;2023-02-18T15:52:00;98788.00;;;-3.35;nan
43814;BME280;29669;55.706;37.656;2023-02-18T15:54:30;98790.44;;;-3.34;nan
43814;BME280;29669;55.706;37.656;2023-02-18T15:57:01;98774.38;;;-3.34;nan
43814;BME280;29669;55.706;37.656;2023-02-18T15:59:34;98775.22;;;-3.34;nan
43814;BME280;29669;55.706;37.656;2023-02-18T16:02:13;98771.84;;;-3.34;nan
43814;BME280;29669;55.706;37.656;2023-02-18T16:04:54;98775.91;;;-3.32;nan
43814;BME280;29669;55.706;37.656;2023-02-18T16:07:29;98778.47;;;-3.32;nan
43814;BME280;29669;55.706;37.656;2023-02-18T16:10:18;98778.25;;;-3.29;nan
43814;BME280;29669;55.706;37.656;2023-02-18T16:12:50;98775.00;;;-3.31;nan
43814;BME280;29669;55.706;37.656;2023-02-18T16:15:26;98775.22;;;-3.34;nan
43814;BME280;29669;55.706;37.656;2023-02-18T16:17:55;98761.81;;;-3.36;nan